sensor_id;sensor_type;location;lat;lon;timestamp;pressure;altitude;pressure_sealevel;temperature;humidity
929;BME280;451;47.988;7.842;2023-06-04T00:02:44;98303.38;;;18.57;81.30
929;BME280;451;47.988;7.842;2023-06-04T00:11:49;98294.56;;;18.38;81.19
929;BME280;451;47.988;7.842;2023-06-04T00:20:52;98231.75;;;18.19;79.41
929;BME280;451;47.988;7.842;2023-06-04T00:29:57;98304.88;;;18.82;78.35
929;BME280;451;47.988;7.842;2023-06-04T00:39:00;98300.63;;;18.63;80.29
929;BME280;451;47.988;7.842;2023-06-04T00:48:04;98278.38;;;17.91;85.61
929;BME280;451;47.988;7.842;2023-06-04T00:57:08;98282.75;;;18.34;82.80
929;BME280;451;47.988;7.842;2023-06-04T01:06:15;98294.47;;;18.14;84.76
929;BME280;451;47.988;7.842;2023-06-04T01:15:24;98301.56;;;18.21;83.63
929;BME280;451;47.988;7.842;2023-06-04T01:24:29;98294.75;;;17.20;89.60
929;BME280;451;47.988;7.842;2023-06-04T01:33:38;98250.97;;;17.48;87.41
929;BME280;451;47.988;7.842;2023-06-04T01:42:43;98307.91;;;17.83;87.48
929;BME280;451;47.988;7.842;2023-06-04T01:51:47;98312.63;;;17.99;84.47
929;BME280;451;47.988;7.842;2023-06-04T02:00:52;98279.19;;;17.49;86.74
929;BME280;451;47.988;7.842;2023-06-04T02:09:56;98311.19;;;17.36;88.52
929;BME280;451;47.988;7.842;2023-06-04T02:19:00;98314.97;;;17.21;88.22
929;BME280;451;47.988;7.842;2023-06-04T02:28:04;98311.47;;;16.96;90.84
929;BME280;451;47.988;7.842;2023-06-04T02:37:09;98317.19;;;16.93;90.07
929;BME280;451;47.988;7.842;2023-06-04T02:46:12;98319.97;;;16.29;96.25
929;BME280;451;47.988;7.842;2023-06-04T02:55:16;98340.50;;;16.46;94.08
929;BME280;451;47.988;7.842;2023-06-04T03:04:19;98329.00;;;16.14;96.53
929;BME280;451;47.988;7.842;2023-06-04T03:13:24;98326.50;;;16.26;91.63
929;BME280;451;47.988;7.842;2023-06-04T03:22:30;98360.91;;;16.52;88.68
929;BME280;451;47.988;7.842;2023-06-04T03:31:34;98361.22;;;16.18;86.06
929;BME280;451;47.988;7.842;2023-06-04T03:40:38;98311.59;;;15.67;82.44
929;BME280;451;47.988;7.842;2023-06-04T03:49:44;98380.22;;;16.15;82.35
929;BME280;451;47.988;7.842;2023-06-04T03:58:47;98367.59;;;15.51;84.79
929;BME280;451;47.988;7.842;2023-06-04T04:07:52;98376.19;;;15.60;84.08
929;BME280;451;47.988;7.842;2023-06-04T04:16:59;98390.22;;;15.87;83.37
929;BME280;451;47.988;7.842;2023-06-04T04:26:04;98387.31;;;16.34;81.45
929;BME280;451;47.988;7.842;2023-06-04T04:35:08;98388.81;;;16.68;80.49
929;BME280;451;47.988;7.842;2023-06-04T04:44:16;98389.63;;;16.69;81.16
929;BME280;451;47.988;7.842;2023-06-04T04:53:19;98387.44;;;17.04;73.70
929;BME280;451;47.988;7.842;2023-06-04T05:02:24;98417.09;;;17.32;71.95
929;BME280;451;47.988;7.842;2023-06-04T05:11:29;98406.94;;;18.03;68.59
929;BME280;451;47.988;7.842;2023-06-04T05:20:33;98419.50;;;17.96;70.14
929;BME280;451;47.988;7.842;2023-06-04T05:29:39;98418.56;;;18.09;68.49
929;BME280;451;47.988;7.842;2023-06-04T05:38:45;98392.19;;;18.26;66.97
929;BME280;451;47.988;7.842;2023-06-04T05:47:56;98432.22;;;18.56;66.55
929;BME280;451;47.988;7.842;2023-06-04T05:57:04;98453.09;;;17.59;70.05
929;BME280;451;47.988;7.842;2023-06-04T06:06:07;98460.38;;;17.01;73.26
929;BME280;451;47.988;7.842;2023-06-04T06:15:14;98465.09;;;16.99;74.21
929;BME280;451;47.988;7.842;2023-06-04T06:24:21;98459.19;;;17.73;70.65
929;BME280;451;47.988;7.842;2023-06-04T06:33:26;98364.53;;;18.08;67.21
929;BME280;451;47.988;7.842;2023-06-04T06:42:32;98466.69;;;19.35;63.57
929;BME280;451;47.988;7.842;2023-06-04T06:51:36;98492.31;;;19.54;63.55
929;BME280;451;47.988;7.842;2023-06-04T07:00:39;98451.59;;;18.63;67.18
929;BME280;451;47.988;7.842;2023-06-04T07:09:44;98458.56;;;19.30;65.78
929;BME280;451;47.988;7.842;2023-06-04T07:18:47;98473.28;;;20.16;61.41
929;BME280;451;47.988;7.842;2023-06-04T07:27:52;98486.66;;;20.74;60.82
929;BME280;451;47.988;7.842;2023-06-04T07:36:59;98455.38;;;21.71;57.49
929;BME280;451;47.988;7.842;2023-06-04T07:46:04;98497.06;;;21.39;58.32
929;BME280;451;47.988;7.842;2023-06-04T07:55:07;98478.34;;;21.67;57.45
929;BME280;451;47.988;7.842;2023-06-04T08:04:13;98490.63;;;21.96;57.02
929;BME280;451;47.988;7.842;2023-06-04T08:13:16;98478.56;;;21.82;57.20
929;BME280;451;47.988;7.842;2023-06-04T08:22:20;98496.09;;;21.73;57.13
929;BME280;451;47.988;7.842;2023-06-04T08:31:23;98501.00;;;20.96;58.85
929;BME280;451;47.988;7.842;2023-06-04T08:40:28;98498.34;;;20.26;60.86
929;BME280;451;47.988;7.842;2023-06-04T08:49:33;98504.91;;;20.65;60.30
929;BME280;451;47.988;7.842;2023-06-04T08:58:40;98465.22;;;19.81;62.10
929;BME280;451;47.988;7.842;2023-06-04T09:07:46;98506.84;;;20.23;62.58
929;BME280;451;47.988;7.842;2023-06-04T09:16:52;98486.91;;;20.61;61.55
929;BME280;451;47.988;7.842;2023-06-04T09:25:55;98490.41;;;21.01;61.54
929;BME280;451;47.988;7.842;2023-06-04T09:35:10;98469.88;;;21.75;58.99
929;BME280;451;47.988;7.842;2023-06-04T09:44:14;98499.25;;;23.09;56.23
929;BME280;451;47.988;7.842;2023-06-04T09:53:20;98417.91;;;26.01;48.95
929;BME280;451;47.988;7.842;2023-06-04T10:02:28;98482.56;;;25.81;49.71
929;BME280;451;47.988;7.842;2023-06-04T10:11:35;98497.91;;;25.60;50.90
929;BME280;451;47.988;7.842;2023-06-04T10:20:39;98498.47;;;25.77;51.19
929;BME280;451;47.988;7.842;2023-06-04T10:29:45;98437.63;;;24.36;52.34
929;BME280;451;47.988;7.842;2023-06-04T10:38:49;98458.31;;;24.83;53.78
929;BME280;451;47.988;7.842;2023-06-04T10:48:01;98476.06;;;27.42;47.92
929;BME280;451;47.988;7.842;2023-06-04T10:57:10;98460.63;;;27.53;47.51
929;BME280;451;47.988;7.842;2023-06-04T11:06:18;98455.03;;;25.38;51.49
929;BME280;451;47.988;7.842;2023-06-04T11:15:22;98473.16;;;25.83;51.59
929;BME280;451;47.988;7.842;2023-06-04T11:24:27;98459.25;;;25.09;51.93
929;BME280;451;47.988;7.842;2023-06-04T11:33:41;98438.88;;;25.43;52.30
929;BME280;451;47.988;7.842;2023-06-04T11:42:47;98427.38;;;25.83;51.84
929;BME280;451;47.988;7.842;2023-06-04T11:51:52;98427.91;;;25.60;53.35
929;BME280;451;47.988;7.842;2023-06-04T12:00:56;98349.25;;;25.68;53.20
929;BME280;451;47.988;7.842;2023-06-04T12:10:05;98429.19;;;25.52;54.72
929;BME280;451;47.988;7.842;2023-06-04T12:19:10;98409.53;;;25.52;53.85
929;BME280;451;47.988;7.842;2023-06-04T12:28:17;98411.16;;;26.14;49.64
929;BME280;451;47.988;7.842;2023-06-04T12:37:22;98363.22;;;26.00;50.65
929;BME280;451;47.988;7.842;2023-06-04T12:46:27;98393.69;;;26.96;48.79
929;BME280;451;47.988;7.842;2023-06-04T12:55:31;98398.00;;;25.92;51.88
929;BME280;451;47.988;7.842;2023-06-04T13:04:34;98347.78;;;26.31;50.72
929;BME280;451;47.988;7.842;2023-06-04T13:13:39;98378.28;;;26.06;52.55
929;BME280;451;47.988;7.842;2023-06-04T13:22:42;98377.13;;;26.53;51.77
929;BME280;451;47.988;7.842;2023-06-04T13:31:47;98352.97;;;26.07;52.80
929;BME280;451;47.988;7.842;2023-06-04T13:40:50;98381.22;;;26.35;52.70
929;BME280;451;47.988;7.842;2023-06-04T13:49:54;98324.63;;;26.84;50.17
929;BME280;451;47.988;7.842;2023-06-04T13:58:57;98356.72;;;27.35;49.94
929;BME280;451;47.988;7.842;2023-06-04T14:08:02;98324.97;;;26.68;51.99
929;BME280;451;47.988;7.842;2023-06-04T14:17:05;98347.16;;;27.82;49.90
929;BME280;451;47.988;7.842;2023-06-04T14:26:10;98318.50;;;27.18;49.99
929;BME280;451;47.988;7.842;2023-06-04T14:35:13;98322.00;;;28.10;47.83
929;BME280;451;47.988;7.842;2023-06-04T14:44:18;98328.50;;;28.09;45.18
929;BME280;451;47.988;7.842;2023-06-04T14:53:21;98305.91;;;28.47;39.58
929;BME280;451;47.988;7.842;2023-06-04T15:02:27;98288.56;;;27.14;42.21
929;BME280;451;47.988;7.842;2023-06-04T15:11:31;98307.31;;;28.21;40.65
929;BME280;451;47.988;7.842;2023-06-04T15:20:35;98288.66;;;26.99;41.76
929;BME280;451;47.988;7.842;2023-06-04T15:29:38;98306.22;;;27.36;41.91
929;BME280;451;47.988;7.842;2023-06-04T15:38:42;98324.56;;;27.73;40.14
929;BME280;451;47.988;7.842;2023-06-04T15:47:45;98315.19;;;27.65;40.54
929;BME280;451;47.988;7.842;2023-06-04T15:56:50;98318.00;;;27.45;38.53
929;BME280;451;47.988;7.842;2023-06-04T16:05:53;98302.47;;;28.18;37.20
929;BME280;451;47.988;7.842;2023-06-04T16:14:59;98293.41;;;26.68;37.27
929;BME280;451;47.988;7.842;2023-06-04T16:24:02;98306.38;;;27.54;37.25
929;BME280;451;47.988;7.842;2023-06-04T16:33:07;98310.53;;;28.23;35.88
929;BME280;451;47.988;7.842;2023-06-04T16:42:10;98307.41;;;27.58;36.45
929;BME280;451;47.988;7.842;2023-06-04T16:51:16;98317.91;;;27.89;36.88
929;BME280;451;47.988;7.842;2023-06-04T17:00:19;98310.38;;;27.23;37.12
929;BME280;451;47.988;7.842;2023-06-04T17:09:23;98292.22;;;26.95;38.01
929;BME280;451;47.988;7.842;2023-06-04T17:18:28;98310.13;;;26.70;38.27
929;BME280;451;47.988;7.842;2023-06-04T17:27:32;98310.03;;;26.96;38.22
929;BME280;451;47.988;7.842;2023-06-04T17:36:35;98312.97;;;26.45;39.20
929;BME280;451;47.988;7.842;2023-06-04T17:45:41;98314.59;;;26.46;38.70
929;BME280;451;47.988;7.842;2023-06-04T17:54:44;98306.88;;;26.09;39.83
929;BME280;451;47.988;7.842;2023-06-04T18:03:48;98304.81;;;26.55;39.19
929;BME280;451;47.988;7.842;2023-06-04T18:12:52;98312.09;;;25.65;39.93
929;BME280;451;47.988;7.842;2023-06-04T18:21:56;98318.53;;;25.44;40.37
929;BME280;451;47.988;7.842;2023-06-04T18:31:00;98313.66;;;25.00;41.45
929;BME280;451;47.988;7.842;2023-06-04T18:40:05;98337.34;;;25.18;44.22
929;BME280;451;47.988;7.842;2023-06-04T18:49:09;98329.75;;;24.85;45.98
929;BME280;451;47.988;7.842;2023-06-04T18:58:13;98321.38;;;24.76;48.27
929;BME280;451;47.988;7.842;2023-06-04T19:07:16;98337.88;;;24.28;49.02
929;BME280;451;47.988;7.842;2023-06-04T19:16:22;98341.19;;;23.29;51.17
929;BME280;451;47.988;7.842;2023-06-04T19:25:26;98362.81;;;23.17;51.88
929;BME280;451;47.988;7.842;2023-06-04T19:34:30;98365.81;;;22.72;53.03
929;BME280;451;47.988;7.842;2023-06-04T19:43:33;98378.72;;;22.37;54.44
929;BME280;451;47.988;7.842;2023-06-04T19:52:37;98379.88;;;21.52;55.38
929;BME280;451;47.988;7.842;2023-06-04T20:01:40;98396.16;;;21.34;56.19
929;BME280;451;47.988;7.842;2023-06-04T20:10:45;98399.47;;;21.13;57.60
929;BME280;451;47.988;7.842;2023-06-04T20:19:48;98395.03;;;20.90;58.36
929;BME280;451;47.988;7.842;2023-06-04T20:28:53;98403.22;;;20.72;58.82
929;BME280;451;47.988;7.842;2023-06-04T20:37:56;98404.34;;;20.36;59.61
929;BME280;451;47.988;7.842;2023-06-04T20:47:01;98404.44;;;20.18;60.08
929;BME280;451;47.988;7.842;2023-06-04T20:56:04;98415.00;;;19.89;61.48
929;BME280;451;47.988;7.842;2023-06-04T21:05:08;98396.00;;;19.44;62.35
929;BME280;451;47.988;7.842;2023-06-04T21:14:12;98431.91;;;19.30;63.46
929;BME280;451;47.988;7.842;2023-06-04T21:23:16;98442.97;;;19.15;64.54
929;BME280;451;47.988;7.842;2023-06-04T21:32:19;98441.53;;;18.83;65.80
929;BME280;451;47.988;7.842;2023-06-04T21:41:23;98449.28;;;18.48;67.89
929;BME280;451;47.988;7.842;2023-06-04T21:50:27;98428.69;;;18.19;67.06
929;BME280;451;47.988;7.842;2023-06-04T21:59:31;98439.94;;;18.21;66.79
929;BME280;451;47.988;7.842;2023-06-04T22:08:34;98442.47;;;17.91;67.13
929;BME280;451;47.988;7.842;2023-06-04T22:17:39;98423.84;;;17.66;66.38
929;BME280;451;47.988;7.842;2023-06-04T22:26:42;98435.72;;;17.88;65.04
929;BME280;451;47.988;7.842;2023-06-04T22:35:46;98447.56;;;17.92;64.14
929;BME280;451;47.988;7.842;2023-06-04T22:44:49;98457.81;;;18.13;61.79
929;BME280;451;47.988;7.842;2023-06-04T22:53:53;98446.44;;;18.25;62.21
929;BME280;451;47.988;7.842;2023-06-04T23:02:57;98432.53;;;18.04;62.02
929;BME280;451;47.988;7.842;2023-06-04T23:12:02;98418.63;;;17.46;62.68
929;BME280;451;47.988;7.842;2023-06-04T23:21:05;98432.50;;;17.55;62.50
929;BME280;451;47.988;7.842;2023-06-04T23:30:11;98429.53;;;17.69;60.81
929;BME280;451;47.988;7.842;2023-06-04T23:39:14;98430.19;;;17.65;60.85
929;BME280;451;47.988;7.842;2023-06-04T23:48:20;98480.91;;;17.25;61.51
929;BME280;451;47.988;7.842;2023-06-04T23:57:23;98426.03;;;17.38;62.36
